Terminal Aerodrome Forecast
Issued by NWS Melbourne, FL

Home | Current Version | Previous Version | Text Only | Print | Product List | Glossary On
Versions: 1 2 3 4 5 6 7 8 9 10 11 12 13 14 15 16 17 18 19 20 21 22 23 24
490
FTUS42 KMLB 292336
TAFMCO
TAF
KMCO 292336Z 3000/3024 32006KT P6SM VCSH FEW050 BKN080
      TEMPO 3000/3001 -TSRA BKN050CB
     FM300300 16004KT P6SM FEW025 BKN250
     FM301400 24004KT P6SM SCT025 SCT050
     FM302100 06008KT P6SM VCTS SCT050CB BKN250=

USA.gov is the U.S. government's official web portal to all federal, state and local government web resources and services.